Steinhatchee, FL (32359)

5:00 AM EST on March 03, 2015 (GMT -0500)
Horseshoe Beach | Change Station
CLOSE
Current Station
Personal Weather Station
Location: Horseshoe Beach, FL
Elevation: 10 ft
Nearby Weather Stations
Active Advisory: Dense Fog Advisory

Elev 10 ft 29.44 °N, 83.28 °W | Updated 3 seconds ago

Partly Cloudy
Partly Cloudy
60.9 °F
Feels Like 60.9 °F
N
0.0
Wind Variable Wind from NNW
Gusts 0.0 mph

Today
High -- | Low -- °F
--% Chance of Precip.
Yesterday
High -- | Low -- °F
Precip. -- in
6:57 AM 6:34 PM
Waxing Gibbous, 95% visible
Pressure 30.19 in
Visibility 1.2 miles
Clouds
Dew Point 59 °F
Humidity 94%
Rainfall 0.00 in
Snow Depth Not available.
UV Not available.
Pollen 7.50 out of 12
Air Quality Not available.
Flu Activity Not available.
METAR K40J 030955Z AUTO 00000KT 1 1/4SM BR VV007 13/13 A3019 RMK AO2 T01340134

More Conditions Fewer Conditions

Pressure 30.19 in
Visibility 1.2 miles
Clouds
Dew Point 59 °F
Humidity 94%
Rainfall 0.00 in
Snow Depth Not available.
UV Not available.
Pollen 7.50 out of 12
Air Quality Not available.
Flu Activity Not available.
METAR K40J 030955Z AUTO 00000KT 1 1/4SM BR VV007 13/13 A3019 RMK AO2 T01340134

More Conditions Fewer Conditions

10-Day Weather Forecast

Almanac

Astronomy

Mar. 03, 2015 Rise Set
Actual Time
Civil Twilight
Nautical Twilight
Astronomical Twilight
Moon
Length of Visible Light
Length of Day
Tomorrow will be .
, % of the Moon is Illuminated

Today's Extremes

State Highs State Lows

Community

WunderPhotos

Upload Photos

1,802,075 photos uploaded!

WunderBlogs® & News

Nearby

Air Quality

  Air Quality AQ Index Pollutant
Not available.

Snow Depth

Station Depth Elevation

Earthquake Activity

City Distance Mag. Time & Date
Minimum magnitude displayed is 2.5.

Coastal Water Temperatures

Place Temperature

Nearby Weather Stations

Dense Fog Advisory
Statement as of 12:32 AM CST on March 03, 2015

... Dense fog advisory in effect until 10 am EST /9 am CST/ this
morning...

The National Weather Service in Tallahassee has issued a dense
fog advisory... which is in effect until 10 am EST /9 am CST/ this
morning.

* Visibility... one quarter of a mile or less.

* Impacts... dense fog will create low visibilities during the
morning commute.

Precautionary/preparedness actions...

A dense fog advisory means visibilities will frequently be
reduced to less than one quarter mile. If driving... slow down...
use your low beam headlights... and leave plenty of distance ahead
of you.



Barry